YXC weather

Cranbrook/Canadian Rockies International Airport
Cranbrook, British Columbia, Canada

Public forecast

Using degrees Celsius for public forecast. Weather courtesy of forecast.io.

Current aviation weather report (METAR) for Cranbrook/Canadian Rockies International Airport

Retrieved 2020/02/18 12:00 UTC (15 minutes ago):

CYXC 181200Z 00000KT 25SM BKN098 M08/M12 A3021 RMK AC5 SLP271

Aviation forecast (TAF) for Cranbrook/Canadian Rockies International Airport

Retrieved 2020/02/18 13:42 UTC (0 seconds ago):

TAF CYXC 181239Z 1813/1901 VRB03KT P6SM SCT100 TEMPO 1813/1818 BKN090 RMK NXT FCST BY 181900Z